Terminal Aerodrome Forecast
Issued by NWS

Home | Current Version | Previous Version | Text Only | Print | Product List | Glossary On
Versions: 1 2 3 4 5 6 7 8 9 10 11 12 13 14 15 16 17 18 19 20 21 22 23 24 25 26
011
FTUS43 KDLH 191721
TAFBRD
TAF
KBRD 191721Z 1918/2018 14011G20KT P6SM BKN010
     FM192100 14014G24KT P6SM BKN030
     FM200100 14013G21KT P6SM BKN035
     FM200200 15014G22KT P6SM VCTS BKN040CB WS020/15045KT
     FM200400 15015G23KT 6SM -SHRA VCTS OVC040CB WS020/15045KT
     FM200600 16012KT 4SM SHRA VCTS OVC015CB WS020/16045KT
     FM201000 18008KT P6SM VCSH OVC008
     FM201200 20007KT P6SM BKN008
     FM201300 22008KT P6SM BKN035=

USA.gov is the U.S. government's official web portal to all federal, state and local government web resources and services.